sensor_id;sensor_type;location;lat;lon;timestamp;temperature;humidity
20066;DHT22;10193;48.884;9.182;2023-03-05T00:00:00;6.10;59.60
20066;DHT22;10193;48.884;9.182;2023-03-05T00:02:28;6.10;59.60
20066;DHT22;10193;48.884;9.182;2023-03-05T00:04:55;6.10;59.60
20066;DHT22;10193;48.884;9.182;2023-03-05T00:07:21;6.10;59.60
20066;DHT22;10193;48.884;9.182;2023-03-05T00:09:48;6.10;59.70
20066;DHT22;10193;48.884;9.182;2023-03-05T00:12:15;6.10;60.30
20066;DHT22;10193;48.884;9.182;2023-03-05T00:14:42;6.10;59.60
20066;DHT22;10193;48.884;9.182;2023-03-05T00:17:08;6.10;59.70
20066;DHT22;10193;48.884;9.182;2023-03-05T00:19:36;6.10;59.70
20066;DHT22;10193;48.884;9.182;2023-03-05T00:22:03;6.10;59.70
20066;DHT22;10193;48.884;9.182;2023-03-05T00:24:30;6.10;59.70
20066;DHT22;10193;48.884;9.182;2023-03-05T00:26:56;6.10;59.70
20066;DHT22;10193;48.884;9.182;2023-03-05T00:29:23;6.10;59.70
20066;DHT22;10193;48.884;9.182;2023-03-05T00:31:49;6.10;59.70
20066;DHT22;10193;48.884;9.182;2023-03-05T00:34:17;6.10;59.80
20066;DHT22;10193;48.884;9.182;2023-03-05T00:36:47;6.10;59.70
20066;DHT22;10193;48.884;9.182;2023-03-05T00:39:15;6.10;59.80
20066;DHT22;10193;48.884;9.182;2023-03-05T00:41:41;6.10;59.80
20066;DHT22;10193;48.884;9.182;2023-03-05T00:44:09;6.10;59.70
20066;DHT22;10193;48.884;9.182;2023-03-05T00:46:35;6.10;59.80
20066;DHT22;10193;48.884;9.182;2023-03-05T00:49:02;6.10;59.70
20066;DHT22;10193;48.884;9.182;2023-03-05T00:51:29;6.10;59.70
20066;DHT22;10193;48.884;9.182;2023-03-05T00:53:57;6.10;59.70
20066;DHT22;10193;48.884;9.182;2023-03-05T00:56:24;6.00;59.60
20066;DHT22;10193;48.884;9.182;2023-03-05T00:58:50;6.00;60.40
20066;DHT22;10193;48.884;9.182;2023-03-05T01:01:18;6.00;59.70
20066;DHT22;10193;48.884;9.182;2023-03-05T01:03:45;6.00;59.70
20066;DHT22;10193;48.884;9.182;2023-03-05T01:06:12;6.00;59.80
20066;DHT22;10193;48.884;9.182;2023-03-05T01:08:40;6.00;59.80
20066;DHT22;10193;48.884;9.182;2023-03-05T01:11:09;6.00;60.10
20066;DHT22;10193;48.884;9.182;2023-03-05T01:13:36;6.00;59.80
20066;DHT22;10193;48.884;9.182;2023-03-05T01:16:03;6.00;59.80
20066;DHT22;10193;48.884;9.182;2023-03-05T01:18:30;6.00;59.80
20066;DHT22;10193;48.884;9.182;2023-03-05T01:20:57;6.00;59.80
20066;DHT22;10193;48.884;9.182;2023-03-05T01:23:24;6.00;59.90
20066;DHT22;10193;48.884;9.182;2023-03-05T01:25:54;6.00;59.90
20066;DHT22;10193;48.884;9.182;2023-03-05T01:28:22;6.00;60.00
20066;DHT22;10193;48.884;9.182;2023-03-05T01:30:49;6.00;60.00
20066;DHT22;10193;48.884;9.182;2023-03-05T01:33:16;6.00;60.00
20066;DHT22;10193;48.884;9.182;2023-03-05T01:35:45;6.00;60.00
20066;DHT22;10193;48.884;9.182;2023-03-05T01:38:12;6.00;60.10
20066;DHT22;10193;48.884;9.182;2023-03-05T01:40:40;6.00;60.00
20066;DHT22;10193;48.884;9.182;2023-03-05T01:43:20;6.00;60.10
20066;DHT22;10193;48.884;9.182;2023-03-05T01:46:21;6.00;60.20
20066;DHT22;10193;48.884;9.182;2023-03-05T01:48:51;6.00;60.40
20066;DHT22;10193;48.884;9.182;2023-03-05T01:51:22;6.00;60.40
20066;DHT22;10193;48.884;9.182;2023-03-05T01:53:50;6.00;60.40
20066;DHT22;10193;48.884;9.182;2023-03-05T01:56:17;6.00;60.50
20066;DHT22;10193;48.884;9.182;2023-03-05T01:58:44;6.00;60.50
20066;DHT22;10193;48.884;9.182;2023-03-05T02:01:11;6.10;60.60
20066;DHT22;10193;48.884;9.182;2023-03-05T02:03:40;6.10;60.50
20066;DHT22;10193;48.884;9.182;2023-03-05T02:06:07;6.10;60.60
20066;DHT22;10193;48.884;9.182;2023-03-05T02:08:33;6.10;60.60
20066;DHT22;10193;48.884;9.182;2023-03-05T02:11:00;6.10;60.60
20066;DHT22;10193;48.884;9.182;2023-03-05T02:13:30;6.10;60.60
20066;DHT22;10193;48.884;9.182;2023-03-05T02:15:59;6.10;60.60
20066;DHT22;10193;48.884;9.182;2023-03-05T02:18:26;6.10;60.60
20066;DHT22;10193;48.884;9.182;2023-03-05T02:20:59;6.10;60.60
20066;DHT22;10193;48.884;9.182;2023-03-05T02:23:28;6.00;60.60
20066;DHT22;10193;48.884;9.182;2023-03-05T02:25:57;6.00;60.60
20066;DHT22;10193;48.884;9.182;2023-03-05T02:28:27;6.00;60.60
20066;DHT22;10193;48.884;9.182;2023-03-05T02:30:55;6.00;60.70
20066;DHT22;10193;48.884;9.182;2023-03-05T02:33:23;6.00;60.70
20066;DHT22;10193;48.884;9.182;2023-03-05T02:35:50;6.00;60.70
20066;DHT22;10193;48.884;9.182;2023-03-05T02:38:19;6.00;60.90
20066;DHT22;10193;48.884;9.182;2023-03-05T02:40:46;6.00;61.70
20066;DHT22;10193;48.884;9.182;2023-03-05T02:43:13;6.00;60.80
20066;DHT22;10193;48.884;9.182;2023-03-05T02:45:39;6.00;61.00
20066;DHT22;10193;48.884;9.182;2023-03-05T02:48:06;6.00;61.00
20066;DHT22;10193;48.884;9.182;2023-03-05T02:50:33;6.00;61.10
20066;DHT22;10193;48.884;9.182;2023-03-05T02:53:00;6.00;61.10
20066;DHT22;10193;48.884;9.182;2023-03-05T02:55:28;6.00;61.10
20066;DHT22;10193;48.884;9.182;2023-03-05T02:57:55;6.00;61.10
20066;DHT22;10193;48.884;9.182;2023-03-05T03:00:21;6.10;61.20
20066;DHT22;10193;48.884;9.182;2023-03-05T03:02:48;6.10;61.30
20066;DHT22;10193;48.884;9.182;2023-03-05T03:05:15;6.10;61.20
20066;DHT22;10193;48.884;9.182;2023-03-05T03:07:42;6.10;61.20
20066;DHT22;10193;48.884;9.182;2023-03-05T03:10:10;6.10;61.20
20066;DHT22;10193;48.884;9.182;2023-03-05T03:12:39;6.10;61.30
20066;DHT22;10193;48.884;9.182;2023-03-05T03:15:07;6.10;61.20
20066;DHT22;10193;48.884;9.182;2023-03-05T03:17:36;6.10;61.30
20066;DHT22;10193;48.884;9.182;2023-03-05T03:20:04;6.10;61.30
20066;DHT22;10193;48.884;9.182;2023-03-05T03:22:31;6.10;61.30
20066;DHT22;10193;48.884;9.182;2023-03-05T03:24:58;6.10;61.30
20066;DHT22;10193;48.884;9.182;2023-03-05T03:27:25;6.10;61.30
20066;DHT22;10193;48.884;9.182;2023-03-05T03:29:53;6.10;61.30
20066;DHT22;10193;48.884;9.182;2023-03-05T03:32:19;6.10;61.20
20066;DHT22;10193;48.884;9.182;2023-03-05T03:34:46;6.10;61.30
20066;DHT22;10193;48.884;9.182;2023-03-05T03:37:13;6.10;61.20
20066;DHT22;10193;48.884;9.182;2023-03-05T03:39:40;6.10;61.20
20066;DHT22;10193;48.884;9.182;2023-03-05T03:42:07;6.10;61.20
20066;DHT22;10193;48.884;9.182;2023-03-05T03:44:33;6.10;61.20
20066;DHT22;10193;48.884;9.182;2023-03-05T03:47:01;6.10;61.20
20066;DHT22;10193;48.884;9.182;2023-03-05T03:49:28;6.10;61.20
20066;DHT22;10193;48.884;9.182;2023-03-05T03:51:54;6.10;61.20
20066;DHT22;10193;48.884;9.182;2023-03-05T03:54:23;6.10;61.10
20066;DHT22;10193;48.884;9.182;2023-03-05T03:56:50;6.00;61.10
20066;DHT22;10193;48.884;9.182;2023-03-05T03:59:17;6.00;61.10
20066;DHT22;10193;48.884;9.182;2023-03-05T04:01:43;6.00;61.10
20066;DHT22;10193;48.884;9.182;2023-03-05T04:04:12;6.00;61.10
20066;DHT22;10193;48.884;9.182;2023-03-05T04:06:39;6.00;61.10
20066;DHT22;10193;48.884;9.182;2023-03-05T04:09:06;6.00;61.20
20066;DHT22;10193;48.884;9.182;2023-03-05T04:11:33;6.00;61.20
20066;DHT22;10193;48.884;9.182;2023-03-05T04:13:59;6.00;61.20
20066;DHT22;10193;48.884;9.182;2023-03-05T04:16:26;6.00;61.20
20066;DHT22;10193;48.884;9.182;2023-03-05T04:18:53;6.00;61.10
20066;DHT22;10193;48.884;9.182;2023-03-05T04:21:21;6.00;61.10
20066;DHT22;10193;48.884;9.182;2023-03-05T04:23:47;6.00;61.10
20066;DHT22;10193;48.884;9.182;2023-03-05T04:26:14;6.00;61.10
20066;DHT22;10193;48.884;9.182;2023-03-05T04:28:41;6.00;61.00
20066;DHT22;10193;48.884;9.182;2023-03-05T04:31:07;5.90;60.90
20066;DHT22;10193;48.884;9.182;2023-03-05T04:33:34;5.90;61.00
20066;DHT22;10193;48.884;9.182;2023-03-05T04:36:01;5.90;60.90
20066;DHT22;10193;48.884;9.182;2023-03-05T04:38:32;5.90;60.90
20066;DHT22;10193;48.884;9.182;2023-03-05T04:40:59;6.00;60.80
20066;DHT22;10193;48.884;9.182;2023-03-05T04:43:26;5.90;60.90
20066;DHT22;10193;48.884;9.182;2023-03-05T04:45:54;5.90;60.90
20066;DHT22;10193;48.884;9.182;2023-03-05T04:48:21;5.80;60.80
20066;DHT22;10193;48.884;9.182;2023-03-05T04:50:47;5.80;60.90
20066;DHT22;10193;48.884;9.182;2023-03-05T04:53:14;5.80;60.80
20066;DHT22;10193;48.884;9.182;2023-03-05T04:55:42;5.80;60.90
20066;DHT22;10193;48.884;9.182;2023-03-05T04:58:09;5.80;60.90
20066;DHT22;10193;48.884;9.182;2023-03-05T05:00:36;5.80;60.90
20066;DHT22;10193;48.884;9.182;2023-03-05T05:03:03;5.80;61.00
20066;DHT22;10193;48.884;9.182;2023-03-05T05:05:32;5.80;61.10
20066;DHT22;10193;48.884;9.182;2023-03-05T05:08:01;5.70;60.90
20066;DHT22;10193;48.884;9.182;2023-03-05T05:10:30;5.70;60.90
20066;DHT22;10193;48.884;9.182;2023-03-05T05:12:58;5.70;61.00
20066;DHT22;10193;48.884;9.182;2023-03-05T05:15:26;5.70;61.00
20066;DHT22;10193;48.884;9.182;2023-03-05T05:17:58;5.70;60.90
20066;DHT22;10193;48.884;9.182;2023-03-05T05:20:25;5.70;61.00
20066;DHT22;10193;48.884;9.182;2023-03-05T05:22:52;5.70;61.00
20066;DHT22;10193;48.884;9.182;2023-03-05T05:25:18;5.70;61.00
20066;DHT22;10193;48.884;9.182;2023-03-05T05:27:45;5.70;61.10
20066;DHT22;10193;48.884;9.182;2023-03-05T05:30:13;5.70;61.00
20066;DHT22;10193;48.884;9.182;2023-03-05T05:32:40;5.70;61.00
20066;DHT22;10193;48.884;9.182;2023-03-05T05:35:08;5.70;61.00
20066;DHT22;10193;48.884;9.182;2023-03-05T05:37:35;5.70;61.00
20066;DHT22;10193;48.884;9.182;2023-03-05T05:40:03;5.70;61.00
20066;DHT22;10193;48.884;9.182;2023-03-05T05:42:31;5.70;60.90
20066;DHT22;10193;48.884;9.182;2023-03-05T05:44:58;5.70;61.10
20066;DHT22;10193;48.884;9.182;2023-03-05T05:47:28;5.70;61.10
20066;DHT22;10193;48.884;9.182;2023-03-05T05:49:55;5.70;61.20
20066;DHT22;10193;48.884;9.182;2023-03-05T05:52:24;5.70;61.20
20066;DHT22;10193;48.884;9.182;2023-03-05T05:54:50;5.70;61.10
20066;DHT22;10193;48.884;9.182;2023-03-05T05:57:17;5.70;61.10
20066;DHT22;10193;48.884;9.182;2023-03-05T05:59:44;5.70;61.10
20066;DHT22;10193;48.884;9.182;2023-03-05T06:02:10;5.60;61.10
20066;DHT22;10193;48.884;9.182;2023-03-05T06:04:38;5.60;61.20
20066;DHT22;10193;48.884;9.182;2023-03-05T06:07:05;5.70;61.20
20066;DHT22;10193;48.884;9.182;2023-03-05T06:09:33;5.60;61.20
20066;DHT22;10193;48.884;9.182;2023-03-05T06:12:01;5.70;61.20
20066;DHT22;10193;48.884;9.182;2023-03-05T06:14:27;5.60;61.20
20066;DHT22;10193;48.884;9.182;2023-03-05T06:16:54;5.70;61.30
20066;DHT22;10193;48.884;9.182;2023-03-05T06:19:21;5.70;61.20
20066;DHT22;10193;48.884;9.182;2023-03-05T06:21:50;5.60;61.00
20066;DHT22;10193;48.884;9.182;2023-03-05T06:24:16;5.60;61.20
20066;DHT22;10193;48.884;9.182;2023-03-05T06:26:44;5.70;61.30
20066;DHT22;10193;48.884;9.182;2023-03-05T06:29:11;5.60;61.20
20066;DHT22;10193;48.884;9.182;2023-03-05T06:31:38;5.70;61.30
20066;DHT22;10193;48.884;9.182;2023-03-05T06:34:04;5.70;61.30
20066;DHT22;10193;48.884;9.182;2023-03-05T06:36:31;5.70;61.30
20066;DHT22;10193;48.884;9.182;2023-03-05T06:38:59;5.70;61.30
20066;DHT22;10193;48.884;9.182;2023-03-05T06:41:29;5.70;61.40
20066;DHT22;10193;48.884;9.182;2023-03-05T06:43:58;5.70;61.40
20066;DHT22;10193;48.884;9.182;2023-03-05T06:46:28;5.70;61.40
20066;DHT22;10193;48.884;9.182;2023-03-05T06:49:01;5.70;61.40
20066;DHT22;10193;48.884;9.182;2023-03-05T06:51:41;5.70;61.20
20066;DHT22;10193;48.884;9.182;2023-03-05T06:54:13;5.70;61.30
20066;DHT22;10193;48.884;9.182;2023-03-05T06:56:45;5.80;61.50
20066;DHT22;10193;48.884;9.182;2023-03-05T06:59:15;5.70;61.50
20066;DHT22;10193;48.884;9.182;2023-03-05T07:01:42;5.70;61.60
20066;DHT22;10193;48.884;9.182;2023-03-05T07:04:10;5.80;61.60
20066;DHT22;10193;48.884;9.182;2023-03-05T07:06:37;5.80;61.60
20066;DHT22;10193;48.884;9.182;2023-03-05T07:09:05;5.80;61.60
20066;DHT22;10193;48.884;9.182;2023-03-05T07:11:33;5.80;61.50
20066;DHT22;10193;48.884;9.182;2023-03-05T07:14:01;5.80;61.50
20066;DHT22;10193;48.884;9.182;2023-03-05T07:16:29;5.80;61.50
20066;DHT22;10193;48.884;9.182;2023-03-05T07:18:58;5.80;61.60
20066;DHT22;10193;48.884;9.182;2023-03-05T07:21:26;5.80;61.50
20066;DHT22;10193;48.884;9.182;2023-03-05T07:23:56;5.90;61.60
20066;DHT22;10193;48.884;9.182;2023-03-05T07:26:24;5.90;61.60
20066;DHT22;10193;48.884;9.182;2023-03-05T07:28:52;5.90;61.80
20066;DHT22;10193;48.884;9.182;2023-03-05T07:31:21;5.90;61.70
20066;DHT22;10193;48.884;9.182;2023-03-05T07:33:51;5.90;61.70
20066;DHT22;10193;48.884;9.182;2023-03-05T07:36:20;5.90;61.70
20066;DHT22;10193;48.884;9.182;2023-03-05T07:38:46;6.00;61.70
20066;DHT22;10193;48.884;9.182;2023-03-05T07:41:17;6.00;61.70
20066;DHT22;10193;48.884;9.182;2023-03-05T07:44:04;6.00;61.60
20066;DHT22;10193;48.884;9.182;2023-03-05T07:46:32;6.00;61.70
20066;DHT22;10193;48.884;9.182;2023-03-05T07:49:02;6.10;61.80
20066;DHT22;10193;48.884;9.182;2023-03-05T07:51:29;6.10;61.80
20066;DHT22;10193;48.884;9.182;2023-03-05T07:53:57;6.10;61.80
20066;DHT22;10193;48.884;9.182;2023-03-05T07:56:25;6.10;61.80
20066;DHT22;10193;48.884;9.182;2023-03-05T07:58:54;6.20;61.80
20066;DHT22;10193;48.884;9.182;2023-03-05T08:01:22;6.20;61.70
20066;DHT22;10193;48.884;9.182;2023-03-05T08:03:49;6.20;61.70
20066;DHT22;10193;48.884;9.182;2023-03-05T08:06:16;6.20;61.60
20066;DHT22;10193;48.884;9.182;2023-03-05T08:08:42;6.20;61.60
20066;DHT22;10193;48.884;9.182;2023-03-05T08:11:11;6.20;61.50
20066;DHT22;10193;48.884;9.182;2023-03-05T08:13:38;6.30;61.60
20066;DHT22;10193;48.884;9.182;2023-03-05T08:16:07;6.30;61.50
20066;DHT22;10193;48.884;9.182;2023-03-05T08:18:35;6.20;61.40
20066;DHT22;10193;48.884;9.182;2023-03-05T08:21:02;6.20;61.40
20066;DHT22;10193;48.884;9.182;2023-03-05T08:23:29;6.30;61.50
20066;DHT22;10193;48.884;9.182;2023-03-05T08:25:56;6.20;61.30
20066;DHT22;10193;48.884;9.182;2023-03-05T08:28:23;6.30;61.40
20066;DHT22;10193;48.884;9.182;2023-03-05T08:30:49;6.30;61.40
20066;DHT22;10193;48.884;9.182;2023-03-05T08:33:17;6.20;61.30
20066;DHT22;10193;48.884;9.182;2023-03-05T08:35:45;6.20;61.30
20066;DHT22;10193;48.884;9.182;2023-03-05T08:38:12;6.20;61.30
20066;DHT22;10193;48.884;9.182;2023-03-05T08:40:39;6.20;61.30
20066;DHT22;10193;48.884;9.182;2023-03-05T08:43:05;6.30;61.40
20066;DHT22;10193;48.884;9.182;2023-03-05T08:45:32;6.30;61.40
20066;DHT22;10193;48.884;9.182;2023-03-05T08:47:58;6.30;61.40
20066;DHT22;10193;48.884;9.182;2023-03-05T08:50:25;6.30;61.50
20066;DHT22;10193;48.884;9.182;2023-03-05T08:52:53;6.30;61.50
20066;DHT22;10193;48.884;9.182;2023-03-05T08:55:21;6.30;61.50
20066;DHT22;10193;48.884;9.182;2023-03-05T08:57:48;6.30;61.50
20066;DHT22;10193;48.884;9.182;2023-03-05T09:00:15;6.30;61.60
20066;DHT22;10193;48.884;9.182;2023-03-05T09:02:41;6.40;61.60
20066;DHT22;10193;48.884;9.182;2023-03-05T09:05:09;6.40;61.60
20066;DHT22;10193;48.884;9.182;2023-03-05T09:07:35;6.40;61.60
20066;DHT22;10193;48.884;9.182;2023-03-05T09:10:05;6.40;61.70
20066;DHT22;10193;48.884;9.182;2023-03-05T09:12:32;6.40;61.70
20066;DHT22;10193;48.884;9.182;2023-03-05T09:14:58;6.50;61.90
20066;DHT22;10193;48.884;9.182;2023-03-05T09:17:25;6.50;61.90
20066;DHT22;10193;48.884;9.182;2023-03-05T09:19:52;6.60;62.00
20066;DHT22;10193;48.884;9.182;2023-03-05T09:22:18;6.60;62.00
20066;DHT22;10193;48.884;9.182;2023-03-05T09:24:45;6.70;62.10
20066;DHT22;10193;48.884;9.182;2023-03-05T09:27:13;6.70;62.00
20066;DHT22;10193;48.884;9.182;2023-03-05T09:29:40;6.70;61.90
20066;DHT22;10193;48.884;9.182;2023-03-05T09:32:07;6.80;61.90
20066;DHT22;10193;48.884;9.182;2023-03-05T09:34:33;6.80;61.80
20066;DHT22;10193;48.884;9.182;2023-03-05T09:37:00;6.90;61.80
20066;DHT22;10193;48.884;9.182;2023-03-05T09:39:26;6.90;61.60
20066;DHT22;10193;48.884;9.182;2023-03-05T09:42:12;6.90;61.60
20066;DHT22;10193;48.884;9.182;2023-03-05T09:44:48;6.90;61.50
20066;DHT22;10193;48.884;9.182;2023-03-05T09:47:25;7.00;61.60
20066;DHT22;10193;48.884;9.182;2023-03-05T09:49:58;7.00;61.50
20066;DHT22;10193;48.884;9.182;2023-03-05T09:52:35;7.00;61.40
20066;DHT22;10193;48.884;9.182;2023-03-05T09:55:10;7.10;61.20
20066;DHT22;10193;48.884;9.182;2023-03-05T09:57:41;7.10;61.20
20066;DHT22;10193;48.884;9.182;2023-03-05T10:00:22;7.10;61.20
20066;DHT22;10193;48.884;9.182;2023-03-05T10:02:56;7.00;60.90
20066;DHT22;10193;48.884;9.182;2023-03-05T10:05:27;7.10;61.20
20066;DHT22;10193;48.884;9.182;2023-03-05T10:07:59;7.10;61.20
20066;DHT22;10193;48.884;9.182;2023-03-05T10:10:28;7.10;61.20
20066;DHT22;10193;48.884;9.182;2023-03-05T10:13:04;7.10;61.20
20066;DHT22;10193;48.884;9.182;2023-03-05T10:15:40;7.10;61.20
20066;DHT22;10193;48.884;9.182;2023-03-05T10:18:20;7.10;61.20
20066;DHT22;10193;48.884;9.182;2023-03-05T10:20:54;7.10;61.20
20066;DHT22;10193;48.884;9.182;2023-03-05T10:23:45;7.10;61.20
20066;DHT22;10193;48.884;9.182;2023-03-05T10:26:34;7.10;61.20
20066;DHT22;10193;48.884;9.182;2023-03-05T10:29:17;7.10;61.20
20066;DHT22;10193;48.884;9.182;2023-03-05T10:31:54;7.10;61.30
20066;DHT22;10193;48.884;9.182;2023-03-05T10:34:38;7.10;61.40
20066;DHT22;10193;48.884;9.182;2023-03-05T10:37:24;7.20;61.70
20066;DHT22;10193;48.884;9.182;2023-03-05T10:40:02;7.20;61.60
20066;DHT22;10193;48.884;9.182;2023-03-05T10:42:40;7.30;61.60
20066;DHT22;10193;48.884;9.182;2023-03-05T10:45:13;7.30;61.60
20066;DHT22;10193;48.884;9.182;2023-03-05T10:47:46;7.40;61.50
20066;DHT22;10193;48.884;9.182;2023-03-05T10:50:16;7.40;61.50
20066;DHT22;10193;48.884;9.182;2023-03-05T10:52:44;7.40;61.30
20066;DHT22;10193;48.884;9.182;2023-03-05T10:55:14;7.40;61.30
20066;DHT22;10193;48.884;9.182;2023-03-05T10:57:41;7.50;61.40
20066;DHT22;10193;48.884;9.182;2023-03-05T11:00:16;7.50;61.40
20066;DHT22;10193;48.884;9.182;2023-03-05T11:02:56;7.50;61.30
20066;DHT22;10193;48.884;9.182;2023-03-05T11:05:39;7.50;61.30
20066;DHT22;10193;48.884;9.182;2023-03-05T11:08:24;7.50;61.30
20066;DHT22;10193;48.884;9.182;2023-03-05T11:11:12;7.60;61.30
20066;DHT22;10193;48.884;9.182;2023-03-05T11:13:50;7.60;61.40
20066;DHT22;10193;48.884;9.182;2023-03-05T11:16:20;7.70;61.50
20066;DHT22;10193;48.884;9.182;2023-03-05T11:18:48;7.70;61.50
20066;DHT22;10193;48.884;9.182;2023-03-05T11:21:20;7.70;61.30
20066;DHT22;10193;48.884;9.182;2023-03-05T11:24:04;7.80;61.10
20066;DHT22;10193;48.884;9.182;2023-03-05T11:26:31;7.80;60.90
20066;DHT22;10193;48.884;9.182;2023-03-05T11:29:00;7.80;61.30
20066;DHT22;10193;48.884;9.182;2023-03-05T11:31:29;7.80;61.30
20066;DHT22;10193;48.884;9.182;2023-03-05T11:34:00;7.90;61.30
20066;DHT22;10193;48.884;9.182;2023-03-05T11:36:30;7.90;61.30
20066;DHT22;10193;48.884;9.182;2023-03-05T11:38:59;7.90;61.10
20066;DHT22;10193;48.884;9.182;2023-03-05T11:41:36;8.00;61.20
20066;DHT22;10193;48.884;9.182;2023-03-05T11:44:09;8.00;60.90
20066;DHT22;10193;48.884;9.182;2023-03-05T11:46:40;8.00;60.70
20066;DHT22;10193;48.884;9.182;2023-03-05T11:49:13;8.00;60.80
20066;DHT22;10193;48.884;9.182;2023-03-05T11:51:43;8.00;60.70
20066;DHT22;10193;48.884;9.182;2023-03-05T11:54:15;8.10;60.80
20066;DHT22;10193;48.884;9.182;2023-03-05T11:56:45;8.10;60.90
20066;DHT22;10193;48.884;9.182;2023-03-05T11:59:15;8.10;61.00
20066;DHT22;10193;48.884;9.182;2023-03-05T12:01:45;8.10;60.90
20066;DHT22;10193;48.884;9.182;2023-03-05T12:04:14;8.20;61.00
20066;DHT22;10193;48.884;9.182;2023-03-05T12:06:43;8.20;60.90
20066;DHT22;10193;48.884;9.182;2023-03-05T12:09:15;8.30;60.80
20066;DHT22;10193;48.884;9.182;2023-03-05T12:11:44;8.30;60.50
20066;DHT22;10193;48.884;9.182;2023-03-05T12:14:18;8.30;60.30
20066;DHT22;10193;48.884;9.182;2023-03-05T12:16:51;8.30;60.10
20066;DHT22;10193;48.884;9.182;2023-03-05T12:19:35;8.30;60.20
20066;DHT22;10193;48.884;9.182;2023-03-05T12:22:14;8.30;60.10
20066;DHT22;10193;48.884;9.182;2023-03-05T12:24:41;8.30;60.20
20066;DHT22;10193;48.884;9.182;2023-03-05T12:29:51;8.30;60.20
20066;DHT22;10193;48.884;9.182;2023-03-05T12:35:29;8.30;59.90
20066;DHT22;10193;48.884;9.182;2023-03-05T12:38:02;8.30;60.00
20066;DHT22;10193;48.884;9.182;2023-03-05T12:40:30;8.30;59.90
20066;DHT22;10193;48.884;9.182;2023-03-05T12:42:59;8.30;59.80
20066;DHT22;10193;48.884;9.182;2023-03-05T12:45:34;8.30;59.90
20066;DHT22;10193;48.884;9.182;2023-03-05T12:48:33;8.30;59.80
20066;DHT22;10193;48.884;9.182;2023-03-05T12:51:11;8.30;59.50
20066;DHT22;10193;48.884;9.182;2023-03-05T12:53:38;8.30;59.60
20066;DHT22;10193;48.884;9.182;2023-03-05T12:56:13;8.30;59.60
20066;DHT22;10193;48.884;9.182;2023-03-05T12:58:43;8.30;59.30
20066;DHT22;10193;48.884;9.182;2023-03-05T13:01:35;8.30;59.40
20066;DHT22;10193;48.884;9.182;2023-03-05T13:04:11;8.20;59.10
20066;DHT22;10193;48.884;9.182;2023-03-05T13:06:41;8.20;59.20
20066;DHT22;10193;48.884;9.182;2023-03-05T13:09:16;8.20;59.10
20066;DHT22;10193;48.884;9.182;2023-03-05T13:11:46;8.20;58.90
20066;DHT22;10193;48.884;9.182;2023-03-05T13:14:35;8.10;59.00
20066;DHT22;10193;48.884;9.182;2023-03-05T13:17:32;8.10;58.80
20066;DHT22;10193;48.884;9.182;2023-03-05T13:20:01;8.00;58.80
20066;DHT22;10193;48.884;9.182;2023-03-05T13:22:31;8.10;59.20
20066;DHT22;10193;48.884;9.182;2023-03-05T13:25:12;8.00;59.00
20066;DHT22;10193;48.884;9.182;2023-03-05T13:27:39;8.00;58.90
20066;DHT22;10193;48.884;9.182;2023-03-05T13:30:20;8.00;59.10
20066;DHT22;10193;48.884;9.182;2023-03-05T13:32:49;8.00;58.80
20066;DHT22;10193;48.884;9.182;2023-03-05T13:35:16;8.00;59.00
20066;DHT22;10193;48.884;9.182;2023-03-05T13:37:45;7.90;58.80
20066;DHT22;10193;48.884;9.182;2023-03-05T13:40:20;7.90;58.80
20066;DHT22;10193;48.884;9.182;2023-03-05T13:42:47;7.90;58.80
20066;DHT22;10193;48.884;9.182;2023-03-05T13:45:25;7.80;58.90
20066;DHT22;10193;48.884;9.182;2023-03-05T13:47:55;7.80;58.90
20066;DHT22;10193;48.884;9.182;2023-03-05T13:50:24;7.80;59.00
20066;DHT22;10193;48.884;9.182;2023-03-05T13:52:53;7.80;58.90
20066;DHT22;10193;48.884;9.182;2023-03-05T13:55:20;7.80;58.80
20066;DHT22;10193;48.884;9.182;2023-03-05T13:57:48;7.70;58.60
20066;DHT22;10193;48.884;9.182;2023-03-05T14:00:28;7.70;58.60
20066;DHT22;10193;48.884;9.182;2023-03-05T14:02:56;7.60;58.50
20066;DHT22;10193;48.884;9.182;2023-03-05T14:05:24;7.60;58.70
20066;DHT22;10193;48.884;9.182;2023-03-05T14:07:53;7.60;58.60
20066;DHT22;10193;48.884;9.182;2023-03-05T14:10:28;7.50;58.60
20066;DHT22;10193;48.884;9.182;2023-03-05T14:12:56;7.50;58.60
20066;DHT22;10193;48.884;9.182;2023-03-05T14:15:25;7.50;58.80
20066;DHT22;10193;48.884;9.182;2023-03-05T14:17:52;7.50;58.90
20066;DHT22;10193;48.884;9.182;2023-03-05T14:20:24;7.50;58.90
20066;DHT22;10193;48.884;9.182;2023-03-05T14:22:54;7.40;58.80
20066;DHT22;10193;48.884;9.182;2023-03-05T14:25:28;7.40;58.80
20066;DHT22;10193;48.884;9.182;2023-03-05T14:27:58;7.40;58.80
20066;DHT22;10193;48.884;9.182;2023-03-05T14:30:25;7.40;59.40
20066;DHT22;10193;48.884;9.182;2023-03-05T14:32:53;7.40;58.80
20066;DHT22;10193;48.884;9.182;2023-03-05T14:35:23;7.40;58.90
20066;DHT22;10193;48.884;9.182;2023-03-05T14:37:51;7.30;59.30
20066;DHT22;10193;48.884;9.182;2023-03-05T14:40:21;7.30;58.80
20066;DHT22;10193;48.884;9.182;2023-03-05T14:42:51;7.30;58.80
20066;DHT22;10193;48.884;9.182;2023-03-05T14:45:19;7.30;58.80
20066;DHT22;10193;48.884;9.182;2023-03-05T14:47:48;7.30;58.80
20066;DHT22;10193;48.884;9.182;2023-03-05T14:50:17;7.20;58.70
20066;DHT22;10193;48.884;9.182;2023-03-05T14:52:45;7.20;58.70
20066;DHT22;10193;48.884;9.182;2023-03-05T14:55:13;7.20;58.80
20066;DHT22;10193;48.884;9.182;2023-03-05T14:57:42;7.20;58.80
20066;DHT22;10193;48.884;9.182;2023-03-05T15:00:15;7.20;58.90
20066;DHT22;10193;48.884;9.182;2023-03-05T15:02:41;7.20;58.90
20066;DHT22;10193;48.884;9.182;2023-03-05T15:05:08;7.20;59.00
20066;DHT22;10193;48.884;9.182;2023-03-05T15:07:36;7.20;59.00
20066;DHT22;10193;48.884;9.182;2023-03-05T15:10:03;7.20;59.00
20066;DHT22;10193;48.884;9.182;2023-03-05T15:12:30;7.20;59.10
20066;DHT22;10193;48.884;9.182;2023-03-05T15:14:58;7.20;59.00
20066;DHT22;10193;48.884;9.182;2023-03-05T15:17:30;7.20;59.00
20066;DHT22;10193;48.884;9.182;2023-03-05T15:19:58;7.10;58.90
20066;DHT22;10193;48.884;9.182;2023-03-05T15:22:26;7.10;59.00
20066;DHT22;10193;48.884;9.182;2023-03-05T15:24:52;7.10;59.00
20066;DHT22;10193;48.884;9.182;2023-03-05T15:27:19;7.10;59.00
20066;DHT22;10193;48.884;9.182;2023-03-05T15:29:46;7.10;59.00
20066;DHT22;10193;48.884;9.182;2023-03-05T15:32:14;7.10;59.00
20066;DHT22;10193;48.884;9.182;2023-03-05T15:34:40;7.10;59.10
20066;DHT22;10193;48.884;9.182;2023-03-05T15:37:07;7.10;59.10
20066;DHT22;10193;48.884;9.182;2023-03-05T15:39:34;7.10;59.20
20066;DHT22;10193;48.884;9.182;2023-03-05T15:42:01;7.10;59.20
20066;DHT22;10193;48.884;9.182;2023-03-05T15:44:28;7.10;59.10
20066;DHT22;10193;48.884;9.182;2023-03-05T15:46:55;7.10;59.10
20066;DHT22;10193;48.884;9.182;2023-03-05T15:49:23;7.00;59.00
20066;DHT22;10193;48.884;9.182;2023-03-05T15:51:50;7.00;58.90
20066;DHT22;10193;48.884;9.182;2023-03-05T15:54:19;7.00;59.00
20066;DHT22;10193;48.884;9.182;2023-03-05T15:56:45;7.00;58.90
20066;DHT22;10193;48.884;9.182;2023-03-05T15:59:12;7.00;59.00
20066;DHT22;10193;48.884;9.182;2023-03-05T16:01:40;7.00;59.00
20066;DHT22;10193;48.884;9.182;2023-03-05T16:04:11;7.00;59.00